Ana Sayfa
METAR-TAF:

METAR-TAF

Havaalanları :

Oklahoma City, Oklahoma, Amerika Birleşik Devletleri

Enlem: 35-29-17N, Boylam: 097-49-25W, yükseklik: 413 m

Güncel hava durumu gözlemi

Rapor saat 19:15 UTC de 23 dakika önce yapıldı.
Rüzgar kuzey/kuzeydoğudan 22 kt ve 27 kt'a kadar ani rüzgarlar
Sıcaklık 6°C
Nem 45%
Basınç 1029 hPa
Görüş mesafesi: 16.1 km

METAR: KRCE 181915Z AUTO 02022G27KT 10SM 06/M05 A3039 RMK AO2

Saat: 13:38 (19:38 UTC)


TAF: eksik

4.000'den fazla havaalanı için hava durumu gözlemleri ve tahminleri (METAR ve TAF raporları).

Kullanılabilir istasyonlar harita üzerinde sarı ve kırmızı noktalarla gösterilir.

İstasyonun adını görmek için fareyi noktanın üzerinde gezdirin.

Sonrasında hava gözlem ve tahminlerini görmek için tıklayın.

Haritayı değiştirmek için: yaklaştırmak için siyah artı işaretli yeşil düğmeye ve uzaklaştırmak için de eksi işaretli düğmeye hızla tıklayın; bitişik haritalar için yeşil okları kullanın.


METAR-TAF: